MED1 KLGB-NONE
Flight info
| Callsign | MED1 |
|---|---|
| Flight time | N/A |
| Altitude | VFR |
| Route | VFR SW |
| Aircraft | H60/M-VGD/C |
Departure
| Time | 2026-04-26 20:13 |
|---|---|
| Airport | Long Beach International Airport (KLGB) |
Arrival
| Time | N/A |
|---|---|
| Airport | NONE |
| Time | Latitude | Longitude | Altitude | Speed | Heading |
|---|---|---|---|---|---|
| 2026-04-26 20:00 | 33.81270 | -118.16136 | 30 ft | 0 kts | 0° |
| 2026-04-26 20:06 | 33.81263 | -118.16122 | 48 ft | 8 kts | 186° |
| 2026-04-26 20:06 | 33.81239 | -118.16147 | 114 ft | 11 kts | 224° |
| 2026-04-26 20:06 | 33.81078 | -118.16284 | 374 ft | 48 kts | 227° |
| 2026-04-26 20:06 | 33.80692 | -118.16639 | 466 ft | 88 kts | 223° |
| 2026-04-26 20:07 | 33.80099 | -118.17038 | 609 ft | 103 kts | 212° |
| 2026-04-26 20:07 | 33.79393 | -118.17380 | 529 ft | 116 kts | 207° |
| 2026-04-26 20:07 | 33.78632 | -118.17680 | 659 ft | 115 kts | 200° |
| 2026-04-26 20:07 | 33.77837 | -118.17912 | 629 ft | 126 kts | 196° |
| 2026-04-26 20:08 | 33.76957 | -118.18058 | 643 ft | 133 kts | 199° |
| 2026-04-26 20:08 | 33.76092 | -118.18528 | 516 ft | 138 kts | 205° |
| 2026-04-26 20:08 | 33.75110 | -118.18676 | 197 ft | 142 kts | 192° |
| 2026-04-26 20:08 | 33.74594 | -118.19496 | 290 ft | 123 kts | 262° |
| 2026-04-26 20:09 | 33.74514 | -118.20342 | 459 ft | 70 kts | 267° |
| 2026-04-26 20:09 | 33.74442 | -118.20730 | 636 ft | 8 kts | 33° |
| 2026-04-26 20:09 | 33.74585 | -118.20309 | 499 ft | 95 kts | 62° |
| 2026-04-26 20:09 | 33.74837 | -118.19579 | 195 ft | 77 kts | 65° |
| 2026-04-26 20:10 | 33.74854 | -118.19247 | 30 ft | 8 kts | 72° |
| 2026-04-26 20:10 | 33.74883 | -118.19096 | 55 ft | 22 kts | 69° |
| 2026-04-26 20:10 | 33.74903 | -118.19032 | 27 ft | 7 kts | 67° |
| 2026-04-26 20:10 | 33.74911 | -118.19011 | 17 ft | 0 kts | 63° |
| 2026-04-26 20:12 | 33.74912 | -118.19009 | 18 ft | 0 kts | 127° |
| 2026-04-26 20:12 | 33.74899 | -118.18960 | 53 ft | 34 kts | 109° |
| 2026-04-26 20:12 | 33.74789 | -118.18253 | 397 ft | 116 kts | 99° |
| 2026-04-26 20:13 | 33.74529 | -118.17152 | 719 ft | 158 kts | 110° |
| 2026-04-26 20:13 | 33.74139 | -118.15834 | 813 ft | 180 kts | 117° |
| 2026-04-26 20:13 | 33.73520 | -118.14548 | 632 ft | 177 kts | 129° |
| 2026-04-26 20:13 | 33.73015 | -118.13768 | 233 ft | 189 kts | 132° |
| 2026-04-26 20:16 | 33.72681 | -118.13286 | 352 ft | 185 kts | 130° |
| 2026-04-26 20:17 | 33.71831 | -118.12127 | 579 ft | 184 kts | 135° |
| 2026-04-26 20:17 | 33.71015 | -118.11016 | 674 ft | 174 kts | 134° |
| 2026-04-26 20:17 | 33.70255 | -118.09948 | 659 ft | 164 kts | 132° |
| 2026-04-26 20:17 | 33.69766 | -118.09250 | 704 ft | 166 kts | 132° |
| 2026-04-26 20:18 | 33.68754 | -118.07772 | 631 ft | 171 kts | 132° |
| 2026-04-26 20:18 | 33.68036 | -118.06725 | 640 ft | 152 kts | 135° |
| 2026-04-26 20:18 | 33.67362 | -118.05805 | 377 ft | 138 kts | 136° |
| 2026-04-26 20:18 | 33.66740 | -118.05004 | 339 ft | 125 kts | 138° |
| 2026-04-26 20:19 | 33.66387 | -118.04576 | 220 ft | 118 kts | 140° |
| 2026-04-26 20:19 | 33.65933 | -118.03890 | 242 ft | 128 kts | 235° |
| 2026-04-26 20:19 | 33.65600 | -118.03315 | 646 ft | 70 kts | 163° |
| 2026-04-26 20:19 | 33.64864 | -118.03191 | 277 ft | 140 kts | 191° |
| 2026-04-26 20:20 | 33.64262 | -118.04229 | 281 ft | 163 kts | 244° |
| 2026-04-26 20:20 | 33.63459 | -118.05245 | 570 ft | 172 kts | 220° |
| 2026-04-26 20:20 | 33.62437 | -118.06056 | 767 ft | 177 kts | 219° |
| 2026-04-26 20:20 | 33.61443 | -118.06950 | 1006 ft | 182 kts | 220° |
| 2026-04-26 20:21 | 33.60418 | -118.07936 | 784 ft | 188 kts | 221° |
| 2026-04-26 20:21 | 33.59426 | -118.08830 | 1074 ft | 169 kts | 221° |
| 2026-04-26 20:21 | 33.58502 | -118.09600 | 797 ft | 156 kts | 218° |
| 2026-04-26 20:21 | 33.57622 | -118.10321 | 535 ft | 150 kts | 219° |
| 2026-04-26 20:22 | 33.56886 | -118.11000 | 372 ft | 109 kts | 221° |
| 2026-04-26 20:22 | 33.56470 | -118.11437 | 246 ft | 45 kts | 226° |
| 2026-04-26 20:22 | 33.56379 | -118.11566 | 111 ft | 14 kts | 228° |
| 2026-04-26 20:22 | 33.56323 | -118.11636 | 64 ft | 11 kts | 229° |
| 2026-04-26 20:23 | 33.56287 | -118.11715 | 125 ft | 19 kts | 231° |
| 2026-04-26 20:23 | 33.56228 | -118.11777 | 182 ft | 1 kts | 232° |
| 2026-04-26 20:23 | 33.56216 | -118.11790 | 176 ft | 1 kts | 233° |
| 2026-04-26 20:24 | 33.56223 | -118.11791 | 170 ft | 0 kts | 110° |
| 2026-04-26 20:24 | 33.56225 | -118.11785 | 177 ft | 0 kts | 101° |
| 2026-04-26 20:24 | 33.56224 | -118.11783 | 169 ft | 1 kts | 170° |
| 2026-04-26 20:24 | 33.56220 | -118.11782 | 169 ft | 0 kts | 186° |
| 2026-04-26 20:25 | 33.56219 | -118.11782 | 169 ft | 0 kts | 233° |
| 2026-04-26 20:25 | 33.56224 | -118.11785 | 169 ft | 0 kts | 281° |
| 2026-04-26 20:25 | 33.56225 | -118.11785 | 175 ft | 2 kts | 282° |
| 2026-04-26 20:26 | 33.56219 | -118.11820 | 516 ft | 14 kts | 281° |
| 2026-04-26 20:26 | 33.56323 | -118.12324 | 791 ft | 108 kts | 282° |
| 2026-04-26 20:26 | 33.56574 | -118.13330 | 528 ft | 144 kts | 284° |
| 2026-04-26 20:26 | 33.56889 | -118.14565 | 293 ft | 165 kts | 285° |
| 2026-04-26 20:27 | 33.57505 | -118.15739 | 136 ft | 183 kts | 340° |
| 2026-04-26 20:27 | 33.58544 | -118.15650 | 1130 ft | 139 kts | 4° |
| 2026-04-26 20:27 | 33.59576 | -118.15357 | 944 ft | 167 kts | 9° |
| 2026-04-26 20:27 | 33.60763 | -118.14937 | 1001 ft | 188 kts | 12° |
| 2026-04-26 20:28 | 33.62123 | -118.14614 | 850 ft | 209 kts | 5° |
| 2026-04-26 20:28 | 33.63527 | -118.14500 | 715 ft | 192 kts | 360° |
| 2026-04-26 20:28 | 33.64771 | -118.14362 | 1431 ft | 168 kts | 359° |
| 2026-04-26 20:28 | 33.65910 | -118.14249 | 2308 ft | 166 kts | 356° |
| 2026-04-26 20:29 | 33.67092 | -118.14162 | 2250 ft | 185 kts | 358° |
| 2026-04-26 20:29 | 33.68383 | -118.14032 | 2075 ft | 184 kts | 358° |
| 2026-04-26 20:29 | 33.69657 | -118.14135 | 1687 ft | 186 kts | 343° |
| 2026-04-26 20:29 | 33.70882 | -118.14575 | 1303 ft | 185 kts | 338° |
| 2026-04-26 20:30 | 33.72146 | -118.15001 | 975 ft | 187 kts | 339° |
| 2026-04-26 20:30 | 33.73256 | -118.15478 | 537 ft | 147 kts | 332° |
| 2026-04-26 20:30 | 33.73971 | -118.15809 | 684 ft | 124 kts | 331° |
| 2026-04-26 20:32 | 33.74271 | -118.15945 | 739 ft | 128 kts | 329° |
| 2026-04-26 20:32 | 33.74859 | -118.16180 | 665 ft | 135 kts | 334° |
| 2026-04-26 20:32 | 33.75809 | -118.16615 | 597 ft | 158 kts | 332° |
| 2026-04-26 20:33 | 33.76896 | -118.17118 | 483 ft | 170 kts | 335° |
| 2026-04-26 20:33 | 33.77939 | -118.17618 | 277 ft | 150 kts | 330° |
| 2026-04-26 20:33 | 33.78757 | -118.18027 | 419 ft | 109 kts | 330° |
| 2026-04-26 20:33 | 33.79362 | -118.18242 | 372 ft | 65 kts | 333° |
| 2026-04-26 20:34 | 33.79636 | -118.18284 | 219 ft | 22 kts | 332° |
| 2026-04-26 20:34 | 33.79808 | -118.18380 | 195 ft | 40 kts | 324° |
| 2026-04-26 20:34 | 33.80086 | -118.18484 | 159 ft | 48 kts | 339° |
| 2026-04-26 20:34 | 33.80412 | -118.18519 | 126 ft | 43 kts | 335° |
| 2026-04-26 20:35 | 33.80635 | -118.18570 | 197 ft | 36 kts | 332° |
| 2026-04-26 20:35 | 33.80809 | -118.18619 | 200 ft | 16 kts | 329° |
| 2026-04-26 20:35 | 33.80858 | -118.18619 | 130 ft | 5 kts | 326° |
| 2026-04-26 20:35 | 33.80875 | -118.18661 | 96 ft | 4 kts | 232° |
| 2026-04-26 20:36 | 33.80883 | -118.18662 | 97 ft | 4 kts | 148° |
| 2026-04-26 20:36 | 33.80874 | -118.18667 | 100 ft | 1 kts | 147° |
| 2026-04-26 20:36 | 33.80868 | -118.18662 | 89 ft | 0 kts | 146° |
| 2026-04-26 20:36 | 33.80869 | -118.18664 | 89 ft | 0 kts | 146° |